Time;durP1;ratioP1;P1;durP2;ratioP2;P2;SDS_P1;SDS_P2;PMS_P1;PMS_P2;Temp;Humidity;BMP_temperature;BMP_pressure;BME280_temperature;BME280_humidity;BME280_pressure;Samples;Min_cycle;Max_cycle;Signal;HPM_P1;HPM_P2
2022/09/12 00:01:56;;;;;;;7.70;6.30;;;20.50;59.60;;;;;;5034315;28;20447;-50
2022/09/12 00:04:21;;;;;;;7.00;6.40;;;20.50;59.50;;;;;;5032990;28;20251;-46
2022/09/12 00:06:47;;;;;;;9.10;6.60;;;20.50;59.40;;;;;;5039823;28;20233;-46
2022/09/12 00:09:13;;;;;;;7.17;6.57;;;20.50;59.10;;;;;;5038329;28;20207;-46
2022/09/12 00:11:42;;;;;;;8.00;7.20;;;20.60;58.80;;;;;;5037940;28;20556;-48
2022/09/12 00:14:10;;;;;;;6.97;6.30;;;20.60;58.60;;;;;;5036298;28;20479;-47
2022/09/12 00:16:36;;;;;;;6.50;5.90;;;20.60;58.40;;;;;;5031454;28;20682;-46
2022/09/12 00:19:03;;;;;;;7.40;6.70;;;20.50;58.40;;;;;;5041722;28;20444;-47
2022/09/12 00:21:28;;;;;;;7.03;6.43;;;20.50;58.80;;;;;;5032901;28;20448;-46
2022/09/12 00:23:54;;;;;;;7.17;6.50;;;20.30;59.10;;;;;;5039011;28;20536;-46
2022/09/12 00:26:20;;;;;;;6.53;5.90;;;20.30;59.20;;;;;;5033643;28;20220;-48
2022/09/12 00:28:47;;;;;;;5.60;5.13;;;20.30;58.90;;;;;;5034987;28;21228;-47
2022/09/12 00:31:16;;;;;;;6.60;6.00;;;20.40;58.70;;;;;;5041972;28;20438;-46
2022/09/12 00:33:42;;;;;;;7.00;6.40;;;20.40;58.60;;;;;;5039261;28;20462;-46
2022/09/12 00:36:14;;;;;;;6.60;6.00;;;20.30;58.50;;;;;;5034613;28;20520;-48
2022/09/12 00:38:40;;;;;;;7.60;6.90;;;20.20;58.60;;;;;;5044846;28;20475;-46
2022/09/12 00:41:28;;;;;;;6.93;6.23;;;20.20;59.00;;;;;;5037156;28;20905;-46
2022/09/12 00:43:58;;;;;;;7.00;6.30;;;20.10;59.20;;;;;;5047336;28;20822;-46
2022/09/12 00:46:42;;;;;;;7.73;7.13;;;20.00;59.50;;;;;;5047865;28;20582;-46
2022/09/12 00:49:27;;;;;;;7.37;6.77;;;20.10;59.40;;;;;;5045745;28;20447;-46
2022/09/12 00:52:13;;;;;;;6.03;5.53;;;20.10;59.00;;;;;;5043584;28;20532;-47
2022/09/12 00:55:02;;;;;;;7.37;6.67;;;20.10;59.00;;;;;;5047894;28;20443;-46
2022/09/12 00:57:53;;;;;;;7.23;6.63;;;20.20;59.30;;;;;;5044083;28;20481;-46
2022/09/12 01:00:22;;;;;;;7.90;7.30;;;20.20;59.40;;;;;;5036288;28;20492;-48
2022/09/12 01:02:57;;;;;;;7.53;6.77;;;20.20;59.30;;;;;;5049854;28;20952;-46
2022/09/12 01:05:25;;;;;;;8.63;6.70;;;20.20;59.30;;;;;;5039166;28;20462;-46
2022/09/12 01:07:51;;;;;;;6.67;6.17;;;20.20;59.10;;;;;;5042152;28;20872;-47
2022/09/12 01:10:19;;;;;;;7.63;6.77;;;20.20;59.00;;;;;;5036150;28;20474;-48
2022/09/12 01:12:45;;;;;;;6.73;6.23;;;20.20;59.10;;;;;;5045711;28;20443;-46
2022/09/12 01:15:11;;;;;;;5.97;5.53;;;20.10;58.80;;;;;;5033787;28;20443;-46
2022/09/12 01:18:06;;;;;;;7.70;6.60;;;20.00;58.80;;;;;;5036652;28;20501;-46
2022/09/12 01:20:37;;;;;;;7.30;6.70;;;20.10;58.70;;;;;;5031379;28;20447;-46
2022/09/12 01:23:18;;;;;;;6.80;6.30;;;20.00;58.40;;;;;;5033981;28;20912;-46
2022/09/12 01:26:10;;;;;;;7.37;6.77;;;20.00;58.90;;;;;;5038348;28;20495;-46
2022/09/12 01:29:11;;;;;;;7.10;6.50;;;19.70;59.60;;;;;;5040285;28;20581;-47
2022/09/12 01:32:00;;;;;;;7.87;7.17;;;19.80;59.80;;;;;;5032713;28;20453;-47
2022/09/12 01:34:36;;;;;;;7.53;6.73;;;19.80;59.70;;;;;;5039390;28;20458;-47
2022/09/12 01:37:02;;;;;;;7.03;6.43;;;19.90;59.60;;;;;;5036266;28;21034;-46
2022/09/12 01:39:36;;;;;;;6.47;5.97;;;19.90;59.40;;;;;;5033991;28;20523;-46
2022/09/12 01:42:05;;;;;;;6.57;5.93;;;19.90;59.40;;;;;;5033289;28;20346;-46
2022/09/12 01:44:45;;;;;;;6.70;6.10;;;19.90;59.30;;;;;;5041922;28;20464;-46
2022/09/12 01:47:18;;;;;;;7.47;6.20;;;19.80;59.20;;;;;;5043297;28;20851;-48
2022/09/12 01:49:56;;;;;;;7.27;6.67;;;19.80;59.20;;;;;;5042630;28;20466;-48
2022/09/12 01:52:37;;;;;;;7.83;6.57;;;19.80;59.10;;;;;;5037467;28;20442;-46
2022/09/12 01:55:15;;;;;;;6.43;5.83;;;19.80;59.20;;;;;;5034701;28;20437;-47
2022/09/12 01:57:50;;;;;;;6.70;6.13;;;19.40;60.80;;;;;;5038872;28;20969;-46
2022/09/12 02:00:16;;;;;;;8.93;6.80;;;19.40;60.70;;;;;;5032857;28;20453;-46
2022/09/12 02:03:11;;;;;;;8.27;6.50;;;19.40;60.60;;;;;;5040187;28;20543;-46
2022/09/12 02:05:43;;;;;;;7.43;6.70;;;19.50;60.10;;;;;;5037651;28;20308;-46
2022/09/12 02:08:30;;;;;;;6.40;5.90;;;19.50;60.30;;;;;;5040332;28;20526;-46
2022/09/12 02:11:00;;;;;;;6.90;6.40;;;19.50;60.50;;;;;;5042371;28;20448;-46
2022/09/12 02:13:42;;;;;;;8.73;7.43;;;19.40;60.30;;;;;;5032623;28;20448;-46
2022/09/12 02:16:15;;;;;;;6.70;6.20;;;19.50;60.30;;;;;;5030430;28;20466;-46
2022/09/12 02:18:46;;;;;;;8.13;7.37;;;19.40;60.60;;;;;;5043613;28;20438;-46
2022/09/12 02:21:12;;;;;;;8.00;7.30;;;19.20;60.70;;;;;;5035900;28;20932;-46
2022/09/12 02:23:44;;;;;;;8.37;7.67;;;19.10;61.90;;;;;;5038522;28;20470;-46
2022/09/12 02:26:22;;;;;;;7.37;6.77;;;19.10;62.00;;;;;;5033493;28;20488;-46
2022/09/12 02:28:48;;;;;;;7.00;6.40;;;19.10;61.60;;;;;;5043733;28;20455;-48
2022/09/12 02:31:22;;;;;;;8.53;7.30;;;19.20;61.10;;;;;;5047234;28;20442;-46
2022/09/12 02:33:50;;;;;;;7.77;7.03;;;19.10;61.30;;;;;;5038300;28;20208;-48
2022/09/12 02:36:39;;;;;;;7.20;6.50;;;19.00;61.10;;;;;;5040654;28;20455;-47
2022/09/12 02:39:05;;;;;;;8.03;7.20;;;19.10;61.50;;;;;;5038953;28;20451;-47
2022/09/12 02:41:30;;;;;;;9.40;7.70;;;18.90;61.10;;;;;;5035748;28;20455;-46
2022/09/12 02:43:56;;;;;;;9.13;6.90;;;18.90;62.00;;;;;;5056239;28;20448;-46
2022/09/12 02:46:33;;;;;;;8.00;7.20;;;19.10;61.90;;;;;;5050807;28;20562;-47
2022/09/12 02:48:59;;;;;;;8.27;7.57;;;19.20;61.50;;;;;;5052361;28;20411;-47
2022/09/12 02:51:25;;;;;;;8.27;7.57;;;19.20;61.20;;;;;;5051822;28;20455;-46
2022/09/12 02:53:52;;;;;;;8.13;7.23;;;19.20;60.70;;;;;;5037491;28;20447;-46
2022/09/12 02:56:26;;;;;;;8.30;7.50;;;19.30;60.30;;;;;;5045364;28;20440;-46
2022/09/12 02:58:55;;;;;;;7.70;7.00;;;19.30;60.40;;;;;;5047746;28;20786;-47
2022/09/12 03:01:48;;;;;;;7.83;7.23;;;19.30;60.60;;;;;;5058110;28;20962;-45
2022/09/12 03:04:32;;;;;;;7.50;6.90;;;19.20;60.70;;;;;;5046760;28;20433;-46
2022/09/12 03:06:57;;;;;;;8.50;7.80;;;19.30;60.40;;;;;;5045853;28;20489;-46
2022/09/12 03:09:47;;;;;;;18.10;7.97;;;19.40;61.00;;;;;;5054712;28;20548;-47
2022/09/12 03:12:39;;;;;;;10.83;8.07;;;19.20;59.90;;;;;;5036214;28;20709;-46
2022/09/12 03:15:25;;;;;;;11.40;8.00;;;18.80;61.60;;;;;;5044708;28;20926;-46
2022/09/12 03:17:50;;;;;;;14.93;8.13;;;18.60;62.10;;;;;;5038236;28;20597;-47
2022/09/12 03:20:43;;;;;;;8.97;8.00;;;18.40;62.70;;;;;;5032720;28;20481;-46
2022/09/12 03:23:27;;;;;;;17.07;7.73;;;18.30;63.10;;;;;;5042366;28;20197;-47
2022/09/12 03:26:24;;;;;;;10.83;8.30;;;18.20;63.90;;;;;;5037089;28;20576;-50
2022/09/12 03:28:51;;;;;;;9.30;8.40;;;18.10;64.10;;;;;;5041505;28;20455;-46
2022/09/12 03:31:18;;;;;;;20.63;7.97;;;18.00;64.40;;;;;;5034287;28;20495;-50
2022/09/12 03:33:44;;;;;;;17.57;7.43;;;18.00;64.70;;;;;;5042034;28;20447;-51
2022/09/12 03:36:20;;;;;;;20.33;8.27;;;17.50;66.60;;;;;;5040168;28;20862;-47
2022/09/12 03:38:45;;;;;;;10.23;8.17;;;17.40;67.70;;;;;;5034900;28;20238;-48
2022/09/12 03:41:11;;;;;;;12.93;8.83;;;17.40;67.90;;;;;;5037186;28;20447;-51
2022/09/12 03:43:36;;;;;;;41.13;9.63;;;17.40;67.80;;;;;;5042327;28;20276;-51
2022/09/12 03:46:02;;;;;;;15.53;8.33;;;17.00;69.40;;;;;;5036339;28;20624;-50
2022/09/12 03:48:28;;;;;;;16.57;8.27;;;17.00;70.30;;;;;;5039394;28;20235;-50
2022/09/12 03:50:53;;;;;;;16.00;8.57;;;17.00;70.40;;;;;;5039671;28;20580;-49
2022/09/12 03:53:19;;;;;;;19.67;8.30;;;17.00;70.50;;;;;;5052303;28;20239;-46
2022/09/12 03:55:44;;;;;;;43.70;9.17;;;17.10;70.10;;;;;;5037850;28;20193;-49
2022/09/12 03:58:10;;;;;;;19.17;8.47;;;17.10;69.70;;;;;;5040932;28;20221;-49
2022/09/12 04:00:37;;;;;;;35.73;9.63;;;17.10;69.80;;;;;;5042190;28;20219;-51
2022/09/12 04:03:03;;;;;;;47.30;9.70;;;17.10;69.70;;;;;;5049849;28;20203;-49
2022/09/12 04:05:28;;;;;;;48.27;9.30;;;17.10;69.50;;;;;;5039042;28;20437;-50
2022/09/12 04:07:54;;;;;;;25.13;9.30;;;16.80;70.40;;;;;;5035350;28;20532;-49
2022/09/12 04:10:20;;;;;;;32.53;9.53;;;16.90;71.40;;;;;;5041056;28;21333;-50
2022/09/12 04:12:45;;;;;;;20.77;8.40;;;16.90;71.10;;;;;;5044937;28;20201;-46
2022/09/12 04:15:11;;;;;;;11.73;9.23;;;16.80;71.40;;;;;;5036830;28;20200;-50
2022/09/12 04:17:36;;;;;;;87.63;12.27;;;17.00;71.70;;;;;;5036457;28;20263;-49
2022/09/12 04:20:02;;;;;;;11.13;9.20;;;17.10;70.60;;;;;;5045607;28;20193;-50
2022/09/12 04:22:28;;;;;;;66.97;10.43;;;17.00;71.40;;;;;;5041189;28;20567;-46
2022/09/12 04:24:54;;;;;;;51.93;11.60;;;16.80;72.30;;;;;;5038621;28;20260;-46
2022/09/12 04:27:20;;;;;;;55.80;10.90;;;16.80;72.20;;;;;;5031923;28;22157;-49
2022/09/12 04:29:45;;;;;;;49.13;11.27;;;16.70;72.20;;;;;;5046933;28;20279;-48
2022/09/12 04:32:11;;;;;;;11.10;9.33;;;16.50;73.10;;;;;;5046378;28;20563;-48
2022/09/12 04:34:38;;;;;;;12.27;9.43;;;16.50;73.70;;;;;;5049027;28;20200;-47
2022/09/12 04:37:03;;;;;;;9.90;9.03;;;16.60;73.60;;;;;;5041789;28;20443;-48
2022/09/12 04:39:29;;;;;;;32.93;9.70;;;16.80;72.70;;;;;;5043095;28;21009;-48
2022/09/12 04:41:55;;;;;;;12.70;9.87;;;16.90;72.10;;;;;;5032321;28;20217;-50
2022/09/12 04:44:20;;;;;;;31.60;10.37;;;17.00;71.70;;;;;;5040674;28;20188;-47
2022/09/12 04:46:46;;;;;;;12.43;9.57;;;17.00;71.30;;;;;;5034983;28;20495;-50
2022/09/12 04:49:15;;;;;;;12.03;9.30;;;17.00;71.50;;;;;;5053584;28;20199;-47
2022/09/12 04:51:42;;;;;;;45.00;10.67;;;17.10;71.90;;;;;;5044758;28;20204;-50
2022/09/12 04:54:12;;;;;;;63.03;10.50;;;17.20;70.40;;;;;;5051288;28;20423;-46
2022/09/12 04:56:40;;;;;;;30.77;8.80;;;17.20;69.80;;;;;;5037445;28;20439;-46
2022/09/12 04:59:07;;;;;;;72.43;10.73;;;17.20;69.80;;;;;;5045043;28;20447;-46
2022/09/12 05:01:33;;;;;;;69.60;9.70;;;17.20;69.50;;;;;;5038896;28;20486;-48
2022/09/12 05:03:59;;;;;;;46.47;9.20;;;17.10;69.50;;;;;;5045701;28;20475;-50
2022/09/12 05:06:28;;;;;;;63.27;9.93;;;16.90;69.90;;;;;;5046346;28;20494;-46
2022/09/12 05:08:55;;;;;;;11.23;8.03;;;16.80;70.80;;;;;;5044885;28;20446;-46
2022/09/12 05:11:23;;;;;;;56.40;12.27;;;16.90;71.00;;;;;;5046548;28;20452;-50
2022/09/12 05:13:49;;;;;;;16.70;8.50;;;17.00;70.70;;;;;;5034974;28;20439;-48
2022/09/12 05:16:16;;;;;;;7.50;6.70;;;16.90;70.70;;;;;;5037719;28;20542;-47
2022/09/12 05:18:43;;;;;;;13.03;7.17;;;16.90;79.90;;;;;;5048885;28;20257;-46
2022/09/12 05:21:14;;;;;;;8.23;7.53;;;17.30;78.50;;;;;;5037527;28;20478;-49
2022/09/12 05:23:40;;;;;;;8.03;7.23;;;17.70;74.00;;;;;;5032599;28;20501;-46
2022/09/12 05:26:07;;;;;;;31.70;8.37;;;18.10;70.40;;;;;;5034151;28;20826;-50
2022/09/12 05:28:37;;;;;;;9.83;7.00;;;18.40;68.20;;;;;;5038946;28;20201;-46
2022/09/12 05:31:13;;;;;;;9.13;6.50;;;18.60;66.30;;;;;;5038555;28;20527;-46
2022/09/12 05:33:40;;;;;;;13.03;8.10;;;18.70;65.60;;;;;;5034363;28;20459;-49
2022/09/12 05:36:09;;;;;;;9.00;6.10;;;18.90;64.50;;;;;;5040143;28;20442;-46
2022/09/12 05:38:35;;;;;;;6.13;5.63;;;19.00;63.30;;;;;;5043859;28;21161;-46
2022/09/12 05:41:19;;;;;;;7.10;6.50;;;19.20;62.70;;;;;;5033375;28;20538;-47
2022/09/12 05:43:45;;;;;;;8.73;7.33;;;19.40;61.70;;;;;;5047817;28;20223;-46
2022/09/12 05:46:16;;;;;;;7.70;7.10;;;19.40;62.00;;;;;;5040980;28;20487;-45
2022/09/12 05:48:44;;;;;;;6.60;5.60;;;19.50;60.70;;;;;;5042360;28;21206;-46
2022/09/12 05:51:13;;;;;;;7.00;6.40;;;19.60;60.60;;;;;;5037752;28;20518;-47
2022/09/12 05:53:39;;;;;;;6.20;5.70;;;19.80;60.20;;;;;;5047278;28;21105;-45
2022/09/12 05:56:21;;;;;;;22.07;6.47;;;19.90;59.90;;;;;;5051630;28;20553;-51
2022/09/12 05:58:52;;;;;;;7.27;6.57;;;19.80;58.90;;;;;;5051137;28;20447;-46
2022/09/12 06:01:18;;;;;;;10.43;7.13;;;19.70;59.30;;;;;;5045876;28;20449;-46
2022/09/12 06:03:50;;;;;;;15.63;7.83;;;19.60;59.60;;;;;;5052874;28;20434;-48
2022/09/12 06:06:17;;;;;;;9.20;8.40;;;19.50;60.30;;;;;;5043560;28;20240;-46
2022/09/12 06:08:46;;;;;;;9.87;8.90;;;19.40;60.10;;;;;;5043463;28;20438;-46
2022/09/12 06:11:14;;;;;;;7.97;7.27;;;19.40;60.70;;;;;;5045739;28;20430;-49
2022/09/12 06:13:41;;;;;;;8.47;7.70;;;19.10;61.30;;;;;;5047664;28;20914;-46
2022/09/12 06:16:10;;;;;;;8.67;7.83;;;19.00;61.90;;;;;;5053510;28;20802;-49
2022/09/12 06:18:37;;;;;;;8.80;8.00;;;19.00;62.60;;;;;;5053865;28;20465;-46
2022/09/12 06:21:07;;;;;;;10.50;9.40;;;19.00;62.30;;;;;;5048383;28;20464;-46
2022/09/12 06:23:33;;;;;;;10.10;9.17;;;19.10;62.10;;;;;;5044204;28;20442;-48
2022/09/12 06:25:59;;;;;;;12.90;8.77;;;19.10;61.90;;;;;;5051014;28;20527;-47
2022/09/12 06:28:25;;;;;;;11.40;9.10;;;19.10;62.00;;;;;;5053970;28;20787;-47
2022/09/12 06:30:51;;;;;;;9.77;8.87;;;18.90;62.20;;;;;;5053317;28;20517;-47
2022/09/12 06:33:17;;;;;;;10.10;9.10;;;18.80;63.50;;;;;;5043452;28;20235;-48
2022/09/12 06:35:43;;;;;;;9.70;8.80;;;18.80;63.80;;;;;;5050087;28;20540;-46
2022/09/12 06:38:09;;;;;;;10.07;9.07;;;18.90;63.90;;;;;;5053562;28;20416;-46
2022/09/12 06:40:42;;;;;;;9.80;8.80;;;18.80;64.00;;;;;;5053181;28;20200;-46
2022/09/12 06:43:07;;;;;;;9.17;8.33;;;18.80;64.30;;;;;;5053779;28;20199;-46
2022/09/12 06:45:33;;;;;;;9.70;8.87;;;19.00;64.70;;;;;;5047798;28;20859;-49
2022/09/12 06:47:59;;;;;;;9.83;8.83;;;19.30;64.50;;;;;;5049945;28;20326;-46
2022/09/12 06:50:24;;;;;;;10.07;9.17;;;19.50;63.70;;;;;;5052958;28;20200;-46
2022/09/12 06:52:50;;;;;;;9.40;8.50;;;19.60;63.80;;;;;;5053247;28;20434;-46
2022/09/12 06:55:16;;;;;;;8.50;7.80;;;19.70;63.40;;;;;;5051130;28;20274;-49
2022/09/12 06:57:42;;;;;;;9.20;8.23;;;19.90;62.90;;;;;;5050824;28;20652;-47
2022/09/12 07:00:09;;;;;;;8.97;8.17;;;20.10;62.50;;;;;;5052816;28;20433;-46
2022/09/12 07:02:34;;;;;;;9.30;8.60;;;20.30;61.80;;;;;;5050033;28;20922;-49
2022/09/12 07:05:00;;;;;;;9.00;8.10;;;20.60;60.90;;;;;;5047439;28;20473;-46
2022/09/12 07:07:25;;;;;;;7.87;7.13;;;20.80;59.80;;;;;;5052467;28;20645;-47
2022/09/12 07:09:51;;;;;;;8.80;8.10;;;20.90;59.50;;;;;;5052959;28;20208;-46
2022/09/12 07:12:17;;;;;;;8.30;7.60;;;21.10;58.80;;;;;;5047594;28;20192;-50
2022/09/12 07:14:42;;;;;;;8.63;7.93;;;21.30;58.30;;;;;;5044291;28;20641;-46
2022/09/12 07:17:08;;;;;;;9.20;8.40;;;21.50;57.80;;;;;;5045814;28;20204;-47
2022/09/12 07:19:34;;;;;;;8.80;8.00;;;21.60;57.30;;;;;;5042581;28;20188;-47
2022/09/12 07:22:00;;;;;;;10.43;8.50;;;21.80;57.40;;;;;;5047387;28;20573;-46
2022/09/12 07:24:26;;;;;;;8.53;7.73;;;22.00;57.00;;;;;;5050261;28;20232;-46
2022/09/12 07:26:51;;;;;;;8.90;8.20;;;22.10;56.50;;;;;;5048498;28;20979;-46
2022/09/12 07:29:17;;;;;;;7.30;6.70;;;22.30;56.20;;;;;;5037905;28;20205;-48
2022/09/12 07:31:43;;;;;;;8.73;7.93;;;22.60;56.20;;;;;;5042730;28;20613;-47
2022/09/12 07:34:10;;;;;;;8.40;7.77;;;22.70;55.90;;;;;;5043575;28;20288;-51
2022/09/12 07:36:36;;;;;;;8.20;7.40;;;22.90;55.60;;;;;;5044678;28;20538;-47
2022/09/12 07:39:02;;;;;;;9.23;8.43;;;23.10;55.60;;;;;;5047123;28;20972;-47
2022/09/12 07:41:30;;;;;;;8.97;8.17;;;23.20;54.60;;;;;;5041201;28;20847;-49
2022/09/12 07:43:57;;;;;;;8.67;7.97;;;23.30;54.30;;;;;;5041217;28;20538;-47
2022/09/12 07:46:24;;;;;;;9.90;7.63;;;23.30;53.90;;;;;;5048067;28;20487;-47
2022/09/12 07:48:55;;;;;;;8.17;7.57;;;23.30;53.60;;;;;;5040141;28;21006;-46
2022/09/12 07:51:22;;;;;;;7.60;7.00;;;23.50;54.10;;;;;;5045076;28;20500;-47
2022/09/12 07:53:48;;;;;;;8.37;7.50;;;23.60;53.60;;;;;;5041420;28;20435;-47
2022/09/12 07:56:15;;;;;;;7.97;7.27;;;23.70;53.40;;;;;;5048015;28;20488;-48
2022/09/12 07:58:41;;;;;;;8.20;7.50;;;23.80;53.00;;;;;;5051186;28;20887;-47
2022/09/12 08:01:08;;;;;;;8.07;7.47;;;23.90;52.70;;;;;;5046439;28;20443;-47
2022/09/12 08:03:35;;;;;;;7.63;7.03;;;24.00;52.40;;;;;;5047808;28;20567;-46
2022/09/12 08:06:09;;;;;;;8.43;6.93;;;24.00;52.90;;;;;;5038604;28;20471;-49
2022/09/12 08:08:35;;;;;;;7.23;6.63;;;24.00;52.70;;;;;;5034776;28;21979;-50
2022/09/12 08:11:04;;;;;;;7.43;6.77;;;24.00;52.90;;;;;;5046703;28;20497;-46
2022/09/12 08:13:31;;;;;;;7.07;6.53;;;23.90;53.20;;;;;;5048882;28;20983;-46
2022/09/12 08:16:02;;;;;;;6.37;5.87;;;23.80;53.00;;;;;;5045726;28;20869;-47
2022/09/12 08:18:29;;;;;;;6.87;6.37;;;23.90;53.00;;;;;;5051644;28;21009;-47
2022/09/12 08:20:59;;;;;;;7.77;7.17;;;23.80;53.00;;;;;;5050214;28;20454;-48
2022/09/12 08:23:26;;;;;;;6.93;6.33;;;23.50;53.60;;;;;;5047738;28;20574;-48
2022/09/12 08:25:56;;;;;;;6.87;6.23;;;23.60;54.30;;;;;;5048862;28;20585;-46
2022/09/12 08:28:21;;;;;;;7.73;6.37;;;23.60;54.00;;;;;;5047431;28;20452;-46
2022/09/12 08:30:47;;;;;;;7.17;6.57;;;23.70;53.90;;;;;;5033736;28;20451;-46
2022/09/12 08:33:14;;;;;;;6.33;5.83;;;23.80;54.20;;;;;;5035995;28;20778;-47
2022/09/12 08:35:39;;;;;;;6.00;5.40;;;23.80;54.50;;;;;;5046313;28;20204;-48
2022/09/12 08:38:05;;;;;;;5.93;5.20;;;23.90;54.30;;;;;;5047073;28;20452;-46
2022/09/12 08:40:42;;;;;;;5.70;5.20;;;24.00;53.80;;;;;;5044619;28;20246;-46
2022/09/12 08:43:17;;;;;;;5.37;4.87;;;24.10;53.80;;;;;;5047420;28;20197;-48
2022/09/12 08:45:57;;;;;;;6.37;5.03;;;24.20;53.00;;;;;;5033621;28;20514;-46
2022/09/12 08:48:22;;;;;;;4.70;4.30;;;24.40;53.20;;;;;;5038909;28;20446;-47
2022/09/12 08:50:48;;;;;;;5.73;5.20;;;24.50;52.80;;;;;;5047067;28;20428;-47
2022/09/12 08:53:19;;;;;;;5.50;5.10;;;24.60;53.00;;;;;;5042843;28;20268;-49
2022/09/12 08:55:54;;;;;;;5.50;4.50;;;24.80;52.60;;;;;;5043949;28;20398;-46
2022/09/12 08:58:22;;;;;;;5.50;5.10;;;24.80;53.00;;;;;;5051043;28;20473;-47
2022/09/12 09:01:16;;;;;;;5.20;4.80;;;24.90;52.00;;;;;;5050874;28;20422;-48
2022/09/12 09:03:55;;;;;;;4.90;4.53;;;25.00;51.90;;;;;;5041150;28;20455;-46
2022/09/12 09:06:51;;;;;;;4.10;3.80;;;25.00;52.20;;;;;;5032240;28;20490;-47
2022/09/12 09:09:45;;;;;;;4.60;4.30;;;25.10;51.90;;;;;;5032800;28;20451;-46
2022/09/12 09:12:35;;;;;;;4.50;4.20;;;25.30;50.60;;;;;;5045802;28;20528;-47
2022/09/12 09:15:23;;;;;;;4.77;4.47;;;25.50;50.00;;;;;;5044555;28;21055;-47
2022/09/12 09:17:59;;;;;;;4.20;3.90;;;25.70;50.00;;;;;;5038120;28;20957;-49
2022/09/12 09:20:59;;;;;;;4.13;3.83;;;25.80;49.50;;;;;;5047301;28;20450;-48
2022/09/12 09:23:32;;;;;;;3.60;3.30;;;26.10;48.90;;;;;;5045099;28;20451;-47
2022/09/12 09:26:13;;;;;;;4.07;3.77;;;26.20;48.40;;;;;;5040281;28;20487;-47
2022/09/12 09:28:44;;;;;;;3.90;3.43;;;26.30;48.50;;;;;;5047173;28;20451;-48
2022/09/12 09:31:14;;;;;;;3.63;3.37;;;26.30;48.50;;;;;;5036061;28;20458;-47
2022/09/12 09:33:40;;;;;;;3.70;3.40;;;26.40;49.10;;;;;;5045334;28;20477;-50
2022/09/12 09:36:28;;;;;;;3.20;2.90;;;26.50;47.50;;;;;;5036704;28;20494;-48
2022/09/12 09:38:53;;;;;;;4.20;3.27;;;26.60;47.70;;;;;;5044069;28;21038;-47
2022/09/12 09:41:30;;;;;;;3.50;3.30;;;26.80;47.10;;;;;;5040609;28;20430;-50
2022/09/12 09:43:56;;;;;;;3.57;3.30;;;26.90;47.00;;;;;;5046481;28;20311;-47
2022/09/12 09:46:22;;;;;;;3.57;3.27;;;27.20;46.50;;;;;;5046481;28;20525;-50
2022/09/12 09:48:50;;;;;;;3.83;3.60;;;27.20;46.40;;;;;;5038919;28;20475;-50
2022/09/12 09:51:32;;;;;;;3.57;3.37;;;27.40;45.50;;;;;;5044567;28;21207;-51
2022/09/12 09:54:11;;;;;;;3.23;3.03;;;27.50;44.50;;;;;;5040178;28;20442;-50
2022/09/12 09:56:41;;;;;;;3.60;3.40;;;27.60;44.00;;;;;;5036226;28;20594;-49
2022/09/12 09:59:17;;;;;;;3.50;3.30;;;27.70;44.30;;;;;;5029386;28;21033;-50
2022/09/12 10:01:54;;;;;;;3.00;2.70;;;27.80;44.50;;;;;;5038776;28;20442;-49
2022/09/12 10:04:25;;;;;;;2.87;2.70;;;27.80;42.90;;;;;;5046505;28;20482;-50
2022/09/12 10:07:03;;;;;;;4.57;2.70;;;27.80;42.80;;;;;;5047623;28;20493;-50
2022/09/12 10:09:34;;;;;;;4.07;3.77;;;28.10;43.40;;;;;;5049118;28;20961;-49
2022/09/12 10:12:18;;;;;;;3.30;3.10;;;28.20;41.90;;;;;;5031816;28;20443;-52
2022/09/12 10:14:59;;;;;;;2.90;2.60;;;28.40;42.40;;;;;;5042567;28;20466;-49
2022/09/12 10:17:28;;;;;;;2.60;2.50;;;28.60;42.60;;;;;;5046018;28;20445;-48
2022/09/12 10:19:54;;;;;;;3.30;3.00;;;28.90;40.40;;;;;;5035681;28;20539;-49
2022/09/12 10:22:23;;;;;;;3.57;2.80;;;28.50;40.00;;;;;;5048991;28;20447;-50
2022/09/12 10:24:55;;;;;;;2.90;2.70;;;28.60;40.30;;;;;;5043519;28;20454;-50
2022/09/12 10:27:28;;;;;;;4.83;3.30;;;28.90;40.60;;;;;;5046521;28;20509;-50
2022/09/12 10:30:12;;;;;;;3.30;2.80;;;29.20;41.30;;;;;;5036033;28;21319;-47
2022/09/12 10:32:42;;;;;;;3.00;2.80;;;29.40;39.90;;;;;;5041275;28;20447;-49
2022/09/12 10:35:18;;;;;;;3.20;2.90;;;29.50;38.80;;;;;;5048426;28;20435;-50
2022/09/12 10:38:16;;;;;;;3.10;2.90;;;29.60;39.20;;;;;;5040876;28;20442;-47
2022/09/12 10:40:43;;;;;;;2.73;2.53;;;29.70;39.00;;;;;;5033228;28;20482;-49
2022/09/12 10:43:33;;;;;;;2.70;2.60;;;29.80;38.10;;;;;;5042661;28;20936;-49
2022/09/12 10:46:18;;;;;;;2.90;2.70;;;29.80;37.90;;;;;;5048261;28;20969;-46
2022/09/12 10:49:22;;;;;;;2.97;2.77;;;29.90;38.40;;;;;;5043168;28;20431;-50
2022/09/12 10:51:49;;;;;;;2.77;2.57;;;30.10;38.10;;;;;;5043227;28;20479;-51
2022/09/12 10:54:17;;;;;;;2.80;2.70;;;30.20;37.80;;;;;;5046902;28;20447;-48
2022/09/12 10:57:10;;;;;;;2.73;2.57;;;30.30;37.70;;;;;;5047448;28;20451;-49
2022/09/12 10:59:57;;;;;;;2.67;2.57;;;30.40;37.40;;;;;;5043209;28;20453;-50
2022/09/12 11:02:44;;;;;;;2.53;2.33;;;30.50;37.50;;;;;;5040111;28;20451;-50
2022/09/12 11:05:41;;;;;;;2.70;2.50;;;30.60;37.90;;;;;;5037504;28;20501;-51
2022/09/12 11:08:38;;;;;;;2.60;2.50;;;30.60;37.30;;;;;;5040001;28;20458;-51
2022/09/12 11:11:22;;;;;;;2.83;2.40;;;30.90;36.30;;;;;;5037647;28;20969;-51
2022/09/12 11:14:06;;;;;;;2.30;2.20;;;31.00;35.40;;;;;;5050119;28;20451;-50
2022/09/12 11:17:03;;;;;;;3.13;2.93;;;31.00;36.70;;;;;;5045877;28;20467;-51
2022/09/12 11:19:49;;;;;;;3.10;2.90;;;31.20;37.30;;;;;;5044336;28;20439;-51
2022/09/12 11:22:21;;;;;;;3.20;3.00;;;31.40;37.10;;;;;;5042817;28;21623;-51
2022/09/12 11:25:39;;;;;;;3.07;2.77;;;31.40;35.70;;;;;;5043686;28;20506;-49
2022/09/12 11:28:23;;;;;;;2.43;2.33;;;31.50;34.10;;;;;;5015490;28;20482;-51
2022/09/12 11:31:20;;;;;;;2.10;2.00;;;31.40;34.40;;;;;;5045416;28;20542;-50
2022/09/12 11:33:51;;;;;;;2.33;2.23;;;31.50;33.00;;;;;;5043754;28;20454;-50
2022/09/12 11:37:15;;;;;;;2.40;2.30;;;31.60;32.50;;;;;;5050022;28;20501;-53
2022/09/12 11:39:45;;;;;;;2.10;2.00;;;31.50;32.20;;;;;;4989216;28;20453;-53
2022/09/12 11:42:21;;;;;;;2.20;2.10;;;31.40;32.30;;;;;;4980407;28;20934;-51
2022/09/12 11:45:02;;;;;;;1.60;1.50;;;31.70;32.40;;;;;;5021283;28;20450;-51
2022/09/12 11:47:31;;;;;;;1.93;1.83;;;31.30;30.20;;;;;;5048363;28;20579;-51
2022/09/12 11:50:02;;;;;;;2.07;1.97;;;31.40;31.90;;;;;;5044820;28;20487;-51
2022/09/12 11:52:36;;;;;;;2.10;2.00;;;31.70;32.30;;;;;;5031201;28;20455;-52
2022/09/12 11:55:15;;;;;;;2.10;2.00;;;32.00;31.80;;;;;;5044607;28;20485;-50
2022/09/12 11:57:49;;;;;;;2.10;2.00;;;31.80;30.50;;;;;;5049311;28;20461;-49
2022/09/12 12:00:28;;;;;;;2.00;1.90;;;31.60;31.90;;;;;;5042804;28;20455;-52
2022/09/12 12:03:04;;;;;;;2.10;2.00;;;31.80;33.10;;;;;;5040054;28;20968;-47
2022/09/12 12:06:03;;;;;;;2.03;1.93;;;32.00;31.70;;;;;;5048836;28;20544;-47
2022/09/12 12:08:30;;;;;;;2.53;2.10;;;32.30;31.10;;;;;;5037715;28;20456;-48
2022/09/12 12:11:02;;;;;;;1.97;1.87;;;31.70;31.50;;;;;;5047216;28;20858;-50
2022/09/12 12:13:42;;;;;;;2.00;1.90;;;32.00;31.50;;;;;;5047141;28;20855;-50
2022/09/12 12:16:18;;;;;;;2.10;2.00;;;32.40;31.20;;;;;;5035921;28;20509;-49
2022/09/12 12:18:44;;;;;;;1.87;1.77;;;32.20;30.40;;;;;;5040805;28;20454;-52
2022/09/12 12:21:28;;;;;;;2.00;1.90;;;32.50;30.70;;;;;;5039196;28;20447;-51
2022/09/12 12:24:08;;;;;;;1.97;1.77;;;32.30;29.80;;;;;;5050966;28;21012;-51
2022/09/12 12:26:42;;;;;;;2.00;1.90;;;32.40;30.50;;;;;;5042159;28;20822;-48
2022/09/12 12:29:32;;;;;;;1.80;1.70;;;32.60;31.40;;;;;;5040791;28;20476;-47
2022/09/12 12:31:58;;;;;;;1.97;1.87;;;32.80;31.00;;;;;;5029969;28;20498;-50
2022/09/12 12:34:46;;;;;;;1.73;1.63;;;33.20;31.50;;;;;;5042933;28;20442;-48
2022/09/12 12:37:38;;;;;;;1.90;1.80;;;32.80;29.50;;;;;;5032620;28;20201;-50
2022/09/12 12:40:19;;;;;;;1.80;1.70;;;32.50;29.10;;;;;;5040917;28;20454;-51
2022/09/12 12:42:45;;;;;;;1.83;1.73;;;32.80;30.00;;;;;;5037731;28;20989;-50
2022/09/12 12:45:16;;;;;;;1.97;1.87;;;32.70;29.40;;;;;;5041029;28;20462;-51
2022/09/12 12:47:47;;;;;;;1.90;1.80;;;32.80;29.20;;;;;;5047058;28;20239;-51
2022/09/12 12:50:16;;;;;;;2.13;1.93;;;33.20;29.10;;;;;;5040232;28;20947;-50
2022/09/12 12:52:51;;;;;;;2.03;1.93;;;33.30;29.10;;;;;;5047182;28;20451;-50
2022/09/12 12:55:27;;;;;;;1.90;1.80;;;33.20;28.70;;;;;;5047387;28;20442;-48
2022/09/12 12:57:57;;;;;;;2.57;2.37;;;32.80;29.20;;;;;;5037507;28;20482;-49
2022/09/12 13:00:23;;;;;;;2.00;1.90;;;32.80;28.70;;;;;;5045804;28;20447;-47
2022/09/12 13:03:25;;;;;;;1.90;1.80;;;33.00;29.50;;;;;;5046363;28;20447;-47
2022/09/12 13:05:56;;;;;;;2.07;1.87;;;33.20;29.20;;;;;;5050036;28;20242;-49
2022/09/12 13:08:32;;;;;;;2.47;1.70;;;33.00;28.50;;;;;;5041566;28;20459;-49
2022/09/12 13:11:09;;;;;;;1.83;1.73;;;33.30;29.30;;;;;;5024854;28;20990;-49
2022/09/12 13:14:02;;;;;;;1.80;1.70;;;33.50;28.70;;;;;;5035107;28;20458;-50
2022/09/12 13:16:52;;;;;;;1.90;1.80;;;33.30;29.20;;;;;;5031360;28;20934;-49